createdAt,value
2023-01-08T00:02:21.812Z,8.15
2023-01-08T00:06:44.477Z,7.18
2023-01-08T00:11:07.173Z,7.05
2023-01-08T00:15:30.351Z,5.82
2023-01-08T00:19:52.592Z,5.90
2023-01-08T00:24:14.815Z,5.85
2023-01-08T00:28:37.571Z,5.60
2023-01-08T00:32:59.712Z,5.47
2023-01-08T00:37:21.894Z,4.90
2023-01-08T00:41:45.572Z,4.57
2023-01-08T00:46:08.802Z,4.45
2023-01-08T00:50:31.411Z,4.30
2023-01-08T00:54:53.466Z,4.60
2023-01-08T00:59:15.591Z,3.85
2023-01-08T01:03:37.671Z,4.68
2023-01-08T01:07:59.656Z,4.32
2023-01-08T01:12:21.812Z,4.70
2023-01-08T01:16:44.160Z,4.65
2023-01-08T01:21:30.734Z,4.63
2023-01-08T01:25:54.652Z,4.78
2023-01-08T01:30:17.028Z,4.45
2023-01-08T01:34:38.871Z,4.47
2023-01-08T01:39:01.234Z,4.43
2023-01-08T01:43:43.455Z,4.55
2023-01-08T01:48:13.910Z,4.03
2023-01-08T01:52:41.610Z,5.30
2023-01-08T01:57:05.149Z,4.63
2023-01-08T02:01:29.166Z,4.28
2023-01-08T02:06:33.436Z,4.72
2023-01-08T02:11:22.009Z,4.50
2023-01-08T02:16:00.376Z,4.40
2023-01-08T02:20:29.362Z,4.60
2023-01-08T02:25:28.029Z,3.97
2023-01-08T02:29:51.711Z,4.35
2023-01-08T02:34:13.919Z,4.18
2023-01-08T02:38:36.769Z,3.90
2023-01-08T02:43:18.130Z,3.45
2023-01-08T02:47:53.790Z,4.13
2023-01-08T02:52:17.888Z,4.05
2023-01-08T02:56:47.296Z,3.97
2023-01-08T03:01:12.266Z,3.58
2023-01-08T03:05:34.742Z,3.70
2023-01-08T03:09:56.700Z,4.05
2023-01-08T03:14:22.829Z,3.97
2023-01-08T03:18:52.974Z,3.55
2023-01-08T03:23:16.709Z,3.72
2023-01-08T03:27:44.629Z,3.63
2023-01-08T03:32:12.272Z,3.50
2023-01-08T03:36:36.852Z,4.15
2023-01-08T03:41:07.788Z,4.00
2023-01-08T03:45:32.050Z,4.05
2023-01-08T03:49:55.609Z,3.60
2023-01-08T03:54:23.250Z,4.35
2023-01-08T03:58:45.600Z,4.15
2023-01-08T04:03:07.765Z,4.35
2023-01-08T04:07:30.089Z,4.05
2023-01-08T04:11:52.808Z,4.57
2023-01-08T04:16:14.833Z,3.80
2023-01-08T04:20:36.726Z,4.00
2023-01-08T04:24:58.862Z,4.25
2023-01-08T04:29:21.129Z,4.25
2023-01-08T04:33:43.026Z,3.70
2023-01-08T04:38:05.230Z,3.65
2023-01-08T04:42:27.685Z,4.10
2023-01-08T04:46:49.885Z,3.90
2023-01-08T04:51:11.827Z,3.95
2023-01-08T04:55:34.254Z,4.65
2023-01-08T04:59:56.360Z,3.92
2023-01-08T05:04:18.431Z,3.53
2023-01-08T05:08:40.755Z,4.28
2023-01-08T05:13:03.164Z,4.20
2023-01-08T05:17:25.217Z,3.55
2023-01-08T05:21:47.307Z,4.20
2023-01-08T05:26:10.107Z,3.42
2023-01-08T05:30:32.367Z,4.10
2023-01-08T05:34:54.612Z,3.78
2023-01-08T05:39:16.611Z,4.57
2023-01-08T05:43:38.532Z,4.50
2023-01-08T05:48:04.565Z,5.07
2023-01-08T05:52:27.349Z,5.15
2023-01-08T05:56:49.726Z,5.80
2023-01-08T06:01:16.390Z,5.30
2023-01-08T06:05:38.349Z,5.15
2023-01-08T06:10:00.446Z,5.90
2023-01-08T06:14:22.352Z,5.53
2023-01-08T06:18:44.547Z,5.65
2023-01-08T06:23:06.906Z,5.95
2023-01-08T06:27:29.301Z,5.47
2023-01-08T06:31:51.291Z,5.95
2023-01-08T06:36:13.188Z,5.88
2023-01-08T06:40:35.450Z,5.97
2023-01-08T06:44:57.346Z,6.55
2023-01-08T06:49:20.107Z,6.35
2023-01-08T06:53:42.065Z,6.13
2023-01-08T06:58:04.130Z,6.40
2023-01-08T07:02:26.299Z,5.60
2023-01-08T07:06:48.769Z,6.22
2023-01-08T07:11:11.089Z,6.07
2023-01-08T07:15:33.209Z,5.85
2023-01-08T07:19:55.567Z,5.75
2023-01-08T07:24:17.567Z,6.07
2023-01-08T07:28:39.526Z,5.75
2023-01-08T07:33:02.246Z,5.60
2023-01-08T07:37:24.297Z,6.38
2023-01-08T07:41:46.734Z,5.60
2023-01-08T07:46:08.697Z,6.55
2023-01-08T07:50:30.832Z,5.50
2023-01-08T07:54:53.231Z,5.70
2023-01-08T07:59:15.220Z,6.13
2023-01-08T08:03:40.110Z,6.88
2023-01-08T08:08:07.548Z,6.43
2023-01-08T08:12:30.154Z,6.85
2023-01-08T08:16:52.329Z,7.20
2023-01-08T08:21:14.609Z,7.07
2023-01-08T08:25:37.334Z,7.05
2023-01-08T08:29:59.632Z,8.00
2023-01-08T08:34:22.749Z,8.27
2023-01-08T08:38:44.669Z,8.20
2023-01-08T08:43:06.582Z,8.00
2023-01-08T08:47:28.610Z,8.85
2023-01-08T08:51:50.685Z,8.73
2023-01-08T08:56:12.671Z,7.90
2023-01-08T09:00:34.718Z,7.35
2023-01-08T09:04:56.626Z,8.20
2023-01-08T09:09:19.686Z,8.57
2023-01-08T09:13:42.045Z,8.07
2023-01-08T09:18:04.893Z,7.88
2023-01-08T09:22:26.661Z,8.35
2023-01-08T09:26:48.836Z,8.48
2023-01-08T09:31:11.142Z,8.50
2023-01-08T09:35:34.461Z,6.68
2023-01-08T09:40:02.192Z,8.30
2023-01-08T09:44:31.342Z,8.07
2023-01-08T09:48:59.885Z,7.40
2023-01-08T09:53:21.807Z,7.47
2023-01-08T09:57:45.171Z,6.50
2023-01-08T10:02:20.588Z,7.47
2023-01-08T10:07:24.765Z,6.90
2023-01-08T10:11:49.427Z,9.30
2023-01-08T10:16:34.029Z,7.88
2023-01-08T10:20:56.268Z,6.82
2023-01-08T10:25:23.291Z,6.32
2023-01-08T10:29:46.066Z,5.50
2023-01-08T10:34:11.545Z,4.60
2023-01-08T10:38:55.186Z,6.00
2023-01-08T10:43:54.299Z,6.50
2023-01-08T10:48:18.725Z,5.82
2023-01-08T10:52:41.066Z,5.70
2023-01-08T10:57:18.467Z,5.88
2023-01-08T11:01:40.549Z,5.47
2023-01-08T11:06:12.667Z,5.82
2023-01-08T11:10:36.974Z,4.80
2023-01-08T11:14:59.249Z,4.90
2023-01-08T11:19:35.261Z,4.60
2023-01-08T11:24:16.598Z,4.47
2023-01-08T11:29:07.852Z,4.47
2023-01-08T11:33:35.408Z,4.70
2023-01-08T11:38:02.043Z,5.05
2023-01-08T11:43:17.965Z,5.25
2023-01-08T11:48:16.038Z,5.07
2023-01-08T11:53:14.071Z,5.00
2023-01-08T11:57:58.328Z,4.82
2023-01-08T12:02:54.508Z,4.90
2023-01-08T12:07:40.528Z,4.80
2023-01-08T12:12:19.335Z,4.57
2023-01-08T12:17:24.950Z,3.53
2023-01-08T12:22:28.438Z,3.80
2023-01-08T12:27:00.269Z,3.70
2023-01-08T12:31:54.476Z,3.92
2023-01-08T12:36:52.170Z,3.95
2023-01-08T12:41:19.366Z,3.78
2023-01-08T12:45:47.105Z,3.38
2023-01-08T12:50:32.584Z,2.90
2023-01-08T12:55:21.548Z,2.92
2023-01-08T12:59:53.349Z,2.90
2023-01-08T13:04:15.786Z,2.58
2023-01-08T13:08:40.675Z,3.30
2023-01-08T13:13:04.632Z,2.88
2023-01-08T13:17:28.768Z,2.75
2023-01-08T13:21:54.940Z,3.03
2023-01-08T13:26:33.692Z,2.92
2023-01-08T13:31:07.107Z,2.60
2023-01-08T13:35:33.048Z,2.85
2023-01-08T13:39:54.886Z,2.97
2023-01-08T13:44:28.521Z,2.75
2023-01-08T13:48:58.930Z,2.50
2023-01-08T13:53:21.990Z,2.70
2023-01-08T13:57:53.753Z,2.00
2023-01-08T14:02:32.817Z,2.25
2023-01-08T14:07:14.087Z,2.15
2023-01-08T14:11:48.747Z,1.70
2023-01-08T14:16:15.767Z,2.28
2023-01-08T14:20:41.687Z,2.17
2023-01-08T14:25:08.246Z,2.00
2023-01-08T14:29:33.003Z,1.85
2023-01-08T14:33:58.407Z,2.05
2023-01-08T14:38:20.427Z,2.10
2023-01-08T14:42:53.460Z,2.63
2023-01-08T14:47:19.946Z,2.53
2023-01-08T14:51:42.167Z,1.92
2023-01-08T14:56:06.906Z,2.63
2023-01-08T15:00:31.904Z,2.60
2023-01-08T15:05:29.018Z,2.60
2023-01-08T15:10:02.830Z,1.85
2023-01-08T15:14:31.251Z,2.00
2023-01-08T15:19:22.646Z,2.17
2023-01-08T15:23:55.087Z,2.10
2023-01-08T15:28:31.326Z,2.17
2023-01-08T15:33:23.872Z,2.00
2023-01-08T15:37:55.425Z,2.30
2023-01-08T15:42:47.702Z,2.08
2023-01-08T15:47:10.005Z,2.15
2023-01-08T15:51:34.909Z,2.03
2023-01-08T15:56:00.051Z,1.98
2023-01-08T16:00:25.745Z,1.77
2023-01-08T16:04:53.218Z,2.20
2023-01-08T16:09:17.922Z,2.17
2023-01-08T16:13:43.465Z,2.13
2023-01-08T16:18:05.888Z,1.98
2023-01-08T16:22:31.646Z,2.25
2023-01-08T16:27:00.205Z,2.05
2023-01-08T16:31:23.960Z,2.40
2023-01-08T16:36:11.407Z,2.25
2023-01-08T16:40:33.857Z,2.15
2023-01-08T16:44:56.028Z,2.70
2023-01-08T16:49:18.267Z,2.65
2023-01-08T16:53:40.953Z,2.55
2023-01-08T16:58:05.154Z,2.20
2023-01-08T17:02:27.571Z,2.47
2023-01-08T17:06:50.277Z,2.30
2023-01-08T17:11:19.701Z,2.50
2023-01-08T17:15:41.497Z,2.83
2023-01-08T17:20:04.270Z,2.28
2023-01-08T17:24:26.206Z,2.63
2023-01-08T17:28:52.641Z,2.30
2023-01-08T17:33:15.205Z,2.40
2023-01-08T17:37:46.290Z,2.70
2023-01-08T17:42:25.146Z,2.30
2023-01-08T17:46:47.645Z,2.53
2023-01-08T17:51:18.369Z,2.17
2023-01-08T17:55:43.631Z,2.70
2023-01-08T18:00:15.686Z,2.63
2023-01-08T18:04:37.766Z,2.30
2023-01-08T18:09:10.215Z,2.30
2023-01-08T18:13:33.663Z,2.35
2023-01-08T18:17:55.926Z,2.50
2023-01-08T18:22:18.251Z,2.60
2023-01-08T18:26:41.286Z,2.92
2023-01-08T18:31:07.969Z,3.50
2023-01-08T18:35:30.562Z,3.47
2023-01-08T18:39:52.611Z,3.58
2023-01-08T18:44:15.063Z,3.60
2023-01-08T18:48:37.467Z,3.05
2023-01-08T18:52:59.601Z,3.33
2023-01-08T18:57:21.887Z,3.13
2023-01-08T19:01:43.925Z,3.38
2023-01-08T19:06:15.650Z,3.95
2023-01-08T19:10:39.565Z,3.40
2023-01-08T19:15:01.687Z,3.55
2023-01-08T19:19:23.870Z,4.38
2023-01-08T19:23:47.829Z,4.10
2023-01-08T19:28:10.049Z,3.65
2023-01-08T19:32:32.194Z,4.25
2023-01-08T19:36:54.442Z,4.32
2023-01-08T19:41:35.305Z,4.00
2023-01-08T19:46:03.822Z,4.45
2023-01-08T19:50:25.866Z,4.10
2023-01-08T19:54:48.088Z,4.07
2023-01-08T19:59:11.810Z,4.00
2023-01-08T20:03:33.628Z,4.53
2023-01-08T20:07:56.911Z,4.80
2023-01-08T20:12:18.926Z,5.28
2023-01-08T20:16:46.265Z,6.45
2023-01-08T20:21:25.897Z,6.40
2023-01-08T20:25:48.284Z,5.82
2023-01-08T20:30:11.678Z,6.50
2023-01-08T20:34:33.702Z,6.95
2023-01-08T20:39:01.084Z,7.00
2023-01-08T20:43:22.989Z,6.93
2023-01-08T20:47:44.768Z,7.03
2023-01-08T20:52:07.145Z,7.53
2023-01-08T20:56:29.789Z,6.75
2023-01-08T21:00:51.585Z,7.10
2023-01-08T21:05:13.831Z,7.10
2023-01-08T21:09:40.320Z,6.30
2023-01-08T21:14:04.306Z,7.68
2023-01-08T21:18:30.108Z,7.35
2023-01-08T21:22:52.545Z,7.18
2023-01-08T21:27:14.786Z,6.95
2023-01-08T21:31:39.215Z,7.20
2023-01-08T21:36:08.387Z,6.97
2023-01-08T21:40:31.707Z,5.43
2023-01-08T21:45:12.766Z,6.07
2023-01-08T21:49:36.257Z,5.70
2023-01-08T21:53:58.387Z,5.22
2023-01-08T21:58:21.017Z,5.60
2023-01-08T22:02:43.289Z,5.55
2023-01-08T22:07:05.306Z,5.38
2023-01-08T22:11:27.704Z,5.28
2023-01-08T22:15:49.509Z,6.18
2023-01-08T22:20:12.579Z,5.68
2023-01-08T22:24:34.926Z,6.38
2023-01-08T22:28:57.587Z,5.63
2023-01-08T22:33:19.527Z,6.07
2023-01-08T22:37:43.806Z,5.95
2023-01-08T22:42:09.466Z,5.40
2023-01-08T22:46:31.527Z,6.03
2023-01-08T22:50:54.472Z,5.75
2023-01-08T22:55:21.105Z,5.30
2023-01-08T22:59:43.446Z,5.00
2023-01-08T23:04:06.139Z,5.03
2023-01-08T23:08:29.327Z,5.25
2023-01-08T23:12:54.606Z,4.53
2023-01-08T23:17:17.010Z,5.25
2023-01-08T23:21:39.223Z,4.93
2023-01-08T23:26:07.760Z,4.72
2023-01-08T23:30:31.786Z,5.00
2023-01-08T23:34:54.170Z,4.43
2023-01-08T23:39:16.890Z,4.25
2023-01-08T23:43:38.825Z,4.95
2023-01-08T23:48:01.071Z,4.60
2023-01-08T23:52:23.604Z,4.55
2023-01-08T23:56:45.905Z,4.88
